createdAt,value
2019-01-25T00:00:21.060Z,23.84
2019-01-25T00:02:47.753Z,23.81
2019-01-25T00:05:14.397Z,23.82
2019-01-25T00:07:41.050Z,23.79
2019-01-25T00:10:07.709Z,23.77
2019-01-25T00:12:34.349Z,23.78
2019-01-25T00:15:01.009Z,23.82
2019-01-25T00:17:27.659Z,23.80
2019-01-25T00:19:55.800Z,23.80
2019-01-25T00:22:22.293Z,23.78
2019-01-25T00:24:47.735Z,23.78
2019-01-25T00:27:14.379Z,23.77
2019-01-25T00:29:41.019Z,23.79
2019-01-25T00:32:07.700Z,23.77
2019-01-25T00:34:34.337Z,23.78
2019-01-25T00:37:01.000Z,23.81
2019-01-25T00:39:27.689Z,23.79
2019-01-25T00:41:54.329Z,23.78
2019-01-25T00:44:20.981Z,23.76
2019-01-25T00:46:47.620Z,23.79
2019-01-25T00:49:14.272Z,23.76
2019-01-25T00:51:40.924Z,23.78
2019-01-25T00:54:07.587Z,23.75
2019-01-25T00:56:34.241Z,23.74
2019-01-25T00:59:00.927Z,23.74
2019-01-25T01:01:27.581Z,23.76
2019-01-25T01:03:54.253Z,23.77
2019-01-25T01:06:20.913Z,23.73
2019-01-25T01:08:47.592Z,23.72
2019-01-25T01:11:14.238Z,23.73
2019-01-25T01:13:40.904Z,23.71
2019-01-25T01:16:07.542Z,23.69
2019-01-25T01:18:34.250Z,23.71
2019-01-25T01:21:00.906Z,23.69
2019-01-25T01:23:27.551Z,23.70
2019-01-25T01:25:54.203Z,23.67
2019-01-25T01:28:20.863Z,23.66
2019-01-25T01:30:47.509Z,23.64
2019-01-25T01:33:14.171Z,23.69
2019-01-25T01:35:40.814Z,23.62
2019-01-25T01:38:07.457Z,23.67
2019-01-25T01:40:34.107Z,23.66
2019-01-25T01:43:00.755Z,23.62
2019-01-25T01:45:27.439Z,23.65
2019-01-25T01:47:54.081Z,23.64
2019-01-25T01:50:20.722Z,23.66
2019-01-25T01:52:47.407Z,23.65
2019-01-25T01:55:14.082Z,23.64
2019-01-25T01:57:40.754Z,23.64
2019-01-25T02:00:07.393Z,23.62
2019-01-25T02:02:34.042Z,23.60
2019-01-25T02:05:00.736Z,23.62
2019-01-25T02:07:27.383Z,23.58
2019-01-25T02:09:54.047Z,23.61
2019-01-25T02:12:20.787Z,23.58
2019-01-25T02:14:47.463Z,23.62
2019-01-25T02:17:14.112Z,23.60
2019-01-25T02:19:41.384Z,23.53
2019-01-25T02:22:08.027Z,23.59
2019-01-25T02:24:34.673Z,23.55
2019-01-25T02:27:01.351Z,23.59
2019-01-25T02:29:27.983Z,23.59
2019-01-25T02:31:54.638Z,23.58
2019-01-25T02:34:21.276Z,23.60
2019-01-25T02:36:47.980Z,23.60
2019-01-25T02:39:14.624Z,23.59
2019-01-25T02:41:41.281Z,23.59
2019-01-25T02:44:07.934Z,23.58
2019-01-25T02:46:34.579Z,23.57
2019-01-25T02:49:01.222Z,23.50
2019-01-25T02:51:27.913Z,23.39
2019-01-25T02:53:54.561Z,23.32
2019-01-25T02:56:21.202Z,23.30
2019-01-25T02:58:47.838Z,23.27
2019-01-25T03:01:14.490Z,23.35
2019-01-25T03:03:41.130Z,23.40
2019-01-25T03:06:07.772Z,23.41
2019-01-25T03:08:34.524Z,23.43
2019-01-25T03:11:02.186Z,23.45
2019-01-25T03:13:28.829Z,23.49
2019-01-25T03:15:55.515Z,23.51
2019-01-25T03:18:22.208Z,23.53
2019-01-25T03:20:48.850Z,23.56
2019-01-25T03:23:15.525Z,23.57
2019-01-25T03:25:42.158Z,23.57
2019-01-25T03:28:08.802Z,23.59
2019-01-25T03:30:35.450Z,23.61
2019-01-25T03:33:02.091Z,23.59
2019-01-25T03:35:28.780Z,23.59
2019-01-25T03:37:55.425Z,23.62
2019-01-25T03:40:22.077Z,23.63
2019-01-25T03:42:48.716Z,23.60
2019-01-25T03:45:15.407Z,23.63
2019-01-25T03:47:42.043Z,23.66
2019-01-25T03:50:08.693Z,23.69
2019-01-25T03:52:35.329Z,23.64
2019-01-25T03:55:01.977Z,23.61
2019-01-25T03:57:28.625Z,23.60
2019-01-25T03:59:55.268Z,23.61
2019-01-25T04:02:21.918Z,23.61
2019-01-25T04:04:48.567Z,23.58
2019-01-25T04:07:15.205Z,23.58
2019-01-25T04:09:42.043Z,23.60
2019-01-25T04:12:08.686Z,23.11
2019-01-25T04:14:35.367Z,22.50
2019-01-25T04:17:02.022Z,22.25
2019-01-25T04:19:28.660Z,22.16
2019-01-25T04:21:55.309Z,22.08
2019-01-25T04:24:21.989Z,21.97
2019-01-25T04:26:48.650Z,21.95
2019-01-25T04:29:15.307Z,22.05
2019-01-25T04:31:41.954Z,21.93
2019-01-25T04:34:08.602Z,22.17
2019-01-25T04:36:35.238Z,22.63
2019-01-25T04:39:01.923Z,22.87
2019-01-25T04:41:28.595Z,22.97
2019-01-25T04:43:58.148Z,23.06
2019-01-25T04:46:24.813Z,23.14
2019-01-25T04:48:51.457Z,23.21
2019-01-25T04:51:18.093Z,23.27
2019-01-25T04:53:44.737Z,23.36
2019-01-25T04:56:11.376Z,23.51
2019-01-25T04:58:38.076Z,23.61
2019-01-25T05:01:04.725Z,23.51
2019-01-25T05:03:31.375Z,23.56
2019-01-25T05:05:58.022Z,23.57
2019-01-25T05:08:24.700Z,23.61
2019-01-25T05:10:51.344Z,23.54
2019-01-25T05:13:18.130Z,23.58
2019-01-25T05:15:44.774Z,23.59
2019-01-25T05:18:11.412Z,23.55
2019-01-25T05:20:38.074Z,23.66
2019-01-25T05:23:04.715Z,23.70
2019-01-25T05:25:31.410Z,23.72
2019-01-25T05:27:58.047Z,23.59
2019-01-25T05:30:24.681Z,23.58
2019-01-25T05:32:51.333Z,23.61
2019-01-25T05:35:18.019Z,23.62
2019-01-25T05:37:44.674Z,23.68
2019-01-25T05:40:11.321Z,23.73
2019-01-25T05:42:37.971Z,23.65
2019-01-25T05:45:04.623Z,23.62
2019-01-25T05:47:31.295Z,23.66
2019-01-25T05:49:57.928Z,23.64
2019-01-25T05:52:24.585Z,23.76
2019-01-25T05:54:51.226Z,23.71
2019-01-25T05:57:29.223Z,23.70
2019-01-25T05:59:55.881Z,23.68
2019-01-25T06:02:22.524Z,23.72
2019-01-25T06:04:49.180Z,23.74
2019-01-25T06:07:18.796Z,23.80
2019-01-25T06:09:45.637Z,23.81
2019-01-25T06:12:12.329Z,23.87
2019-01-25T06:14:39.014Z,23.78
2019-01-25T06:17:05.685Z,23.76
2019-01-25T06:19:32.325Z,23.82
2019-01-25T06:21:59.066Z,23.94
2019-01-25T06:24:25.731Z,23.81
2019-01-25T06:26:52.389Z,23.78
2019-01-25T06:29:19.249Z,23.85
2019-01-25T06:31:45.895Z,24.17
2019-01-25T06:34:12.560Z,24.02
2019-01-25T06:36:39.202Z,23.69
2019-01-25T06:39:05.869Z,23.86
2019-01-25T06:41:32.521Z,23.82
2019-01-25T06:43:59.196Z,23.84
2019-01-25T06:46:25.848Z,23.80
2019-01-25T06:48:52.499Z,23.85
2019-01-25T06:51:19.196Z,23.85
2019-01-25T06:53:45.847Z,23.95
2019-01-25T06:56:12.500Z,24.04
2019-01-25T06:58:39.197Z,24.11
2019-01-25T07:01:05.846Z,24.10
2019-01-25T07:03:32.483Z,23.98
2019-01-25T07:05:59.167Z,23.96
2019-01-25T07:08:25.809Z,23.95
2019-01-25T07:10:52.462Z,23.93
2019-01-25T07:13:19.115Z,23.94
2019-01-25T07:15:45.760Z,23.99
2019-01-25T07:18:12.549Z,24.03
2019-01-25T07:20:39.190Z,24.01
2019-01-25T07:23:05.842Z,23.97
2019-01-25T07:25:32.566Z,23.94
2019-01-25T07:27:59.188Z,23.93
2019-01-25T07:30:25.847Z,23.91
2019-01-25T07:32:52.928Z,23.97
2019-01-25T07:35:19.594Z,23.95
2019-01-25T07:37:46.310Z,23.96
2019-01-25T07:40:13.100Z,24.10
2019-01-25T07:42:42.278Z,23.98
2019-01-25T07:45:09.969Z,23.93
2019-01-25T07:47:36.722Z,24.13
2019-01-25T07:50:03.512Z,24.01
2019-01-25T07:52:30.260Z,23.94
2019-01-25T07:54:57.089Z,24.16
2019-01-25T07:57:23.922Z,24.13
2019-01-25T07:59:50.593Z,24.16
2019-01-25T08:02:17.302Z,24.06
2019-01-25T08:04:44.000Z,23.99
2019-01-25T08:07:10.667Z,24.06
2019-01-25T08:09:37.341Z,24.05
2019-01-25T08:12:07.616Z,24.17
2019-01-25T08:14:30.664Z,24.19
2019-01-25T08:16:57.397Z,24.15
2019-01-25T08:19:24.042Z,24.10
2019-01-25T08:21:50.698Z,24.12
2019-01-25T08:24:17.432Z,24.12
2019-01-25T08:26:44.085Z,24.16
2019-01-25T08:29:10.739Z,24.17
2019-01-25T08:31:37.410Z,24.11
2019-01-25T08:34:04.110Z,24.09
2019-01-25T08:36:30.787Z,24.08
2019-01-25T08:38:57.546Z,24.10
2019-01-25T08:41:24.214Z,24.10
2019-01-25T08:43:50.829Z,24.24
2019-01-25T08:46:17.623Z,24.16
2019-01-25T08:48:44.246Z,24.19
2019-01-25T08:51:11.324Z,24.27
2019-01-25T08:53:37.721Z,24.15
2019-01-25T08:56:04.555Z,24.15
2019-01-25T08:58:31.097Z,24.17
2019-01-25T09:00:57.868Z,24.21
2019-01-25T09:03:24.514Z,24.20
2019-01-25T09:05:54.297Z,24.19
2019-01-25T09:08:21.525Z,24.26
2019-01-25T09:10:48.167Z,24.22
2019-01-25T09:13:14.907Z,24.31
2019-01-25T09:15:41.550Z,24.26
2019-01-25T09:18:08.210Z,24.32
2019-01-25T09:20:34.849Z,24.28
2019-01-25T09:23:01.505Z,24.27
2019-01-25T09:25:29.225Z,24.25
2019-01-25T09:27:55.970Z,24.39
2019-01-25T09:30:22.635Z,24.47
2019-01-25T09:32:49.289Z,24.48
2019-01-25T09:35:15.960Z,24.57
2019-01-25T09:37:42.616Z,24.41
2019-01-25T09:40:09.287Z,24.43
2019-01-25T09:42:35.937Z,24.38
2019-01-25T09:45:02.575Z,24.38
2019-01-25T09:47:29.224Z,24.38
2019-01-25T09:49:55.974Z,24.44
2019-01-25T09:52:22.615Z,24.37
2019-01-25T09:54:49.270Z,24.36
2019-01-25T09:57:15.920Z,24.47
2019-01-25T09:59:42.569Z,24.37
2019-01-25T10:02:09.216Z,24.38
2019-01-25T10:04:35.883Z,24.44
2019-01-25T10:07:02.531Z,24.41
2019-01-25T10:09:29.208Z,24.52
2019-01-25T10:11:55.864Z,24.48
2019-01-25T10:14:22.540Z,24.42
2019-01-25T10:16:49.196Z,24.41
2019-01-25T10:19:15.854Z,24.40
2019-01-25T10:21:42.503Z,24.54
2019-01-25T10:24:09.177Z,24.46
2019-01-25T10:26:38.172Z,24.49
2019-01-25T10:29:04.829Z,24.65
2019-01-25T10:31:31.507Z,24.71
2019-01-25T10:33:58.115Z,24.70
2019-01-25T10:36:24.784Z,24.46
2019-01-25T10:38:51.436Z,24.51
2019-01-25T10:41:19.487Z,24.64
2019-01-25T10:43:44.804Z,24.55
2019-01-25T10:46:11.466Z,24.44
2019-01-25T10:48:38.157Z,24.45
2019-01-25T10:51:04.840Z,24.47
2019-01-25T10:53:31.539Z,24.46
2019-01-25T10:55:58.289Z,24.33
2019-01-25T10:58:25.037Z,24.36
2019-01-25T11:00:51.694Z,24.20
2019-01-25T11:03:18.431Z,24.30
2019-01-25T11:05:45.159Z,24.32
2019-01-25T11:08:11.859Z,24.41
2019-01-25T11:10:38.532Z,24.36
2019-01-25T11:13:05.281Z,24.41
2019-01-25T11:15:32.011Z,24.41
2019-01-25T11:17:58.673Z,24.41
2019-01-25T11:20:25.331Z,24.46
2019-01-25T11:22:52.023Z,24.36
2019-01-25T11:25:18.675Z,24.39
2019-01-25T11:27:45.391Z,24.40
2019-01-25T11:30:12.030Z,24.47
2019-01-25T11:32:38.785Z,24.58
2019-01-25T11:35:05.433Z,24.44
2019-01-25T11:37:32.149Z,24.37
2019-01-25T11:39:58.818Z,24.42
2019-01-25T11:42:25.649Z,24.38
2019-01-25T11:44:52.354Z,24.59
2019-01-25T11:47:19.035Z,24.46
2019-01-25T11:49:45.723Z,24.45
2019-01-25T11:52:12.400Z,24.27
2019-01-25T11:54:39.064Z,24.49
2019-01-25T11:57:05.844Z,24.50
2019-01-25T11:59:32.453Z,24.47
2019-01-25T12:01:59.106Z,24.39
2019-01-25T12:04:25.834Z,24.45
2019-01-25T12:06:52.494Z,24.42
2019-01-25T12:09:19.208Z,24.53
2019-01-25T12:11:45.888Z,24.55
2019-01-25T12:14:12.552Z,24.55
2019-01-25T12:16:39.205Z,24.63
2019-01-25T12:19:05.844Z,24.59
2019-01-25T12:21:32.498Z,24.53
2019-01-25T12:23:59.147Z,24.55
2019-01-25T12:26:25.925Z,24.48
2019-01-25T12:28:52.666Z,24.47
2019-01-25T12:31:19.545Z,24.48
2019-01-25T12:33:46.249Z,24.54
2019-01-25T12:36:12.952Z,24.81
2019-01-25T12:38:39.658Z,24.69
2019-01-25T12:41:06.322Z,24.62
2019-01-25T12:43:35.280Z,24.57
2019-01-25T12:46:01.824Z,24.49
2019-01-25T12:48:31.262Z,24.59
2019-01-25T12:50:58.099Z,24.47
2019-01-25T12:53:24.886Z,24.63
2019-01-25T12:55:51.730Z,24.66
2019-01-25T12:58:18.393Z,24.48
2019-01-25T13:00:45.038Z,24.43
2019-01-25T13:03:11.736Z,24.39
2019-01-25T13:05:38.425Z,24.40
2019-01-25T13:08:05.112Z,24.43
2019-01-25T13:10:31.861Z,24.50
2019-01-25T13:12:58.605Z,24.66
2019-01-25T13:15:26.013Z,24.55
2019-01-25T13:17:52.808Z,24.44
2019-01-25T13:20:19.547Z,24.38
2019-01-25T13:22:48.528Z,24.38
2019-01-25T13:25:15.280Z,24.33
2019-01-25T13:27:42.120Z,24.38
2019-01-25T13:30:08.821Z,24.40
2019-01-25T13:32:36.001Z,24.39
2019-01-25T13:35:02.766Z,24.33
2019-01-25T13:37:31.540Z,24.31
2019-01-25T13:39:56.089Z,24.34
2019-01-25T13:42:22.748Z,24.31
2019-01-25T13:44:49.415Z,24.32
2019-01-25T13:47:16.105Z,24.32
2019-01-25T13:49:42.793Z,24.35
2019-01-25T13:52:09.455Z,24.45
2019-01-25T13:54:36.092Z,24.52
2019-01-25T13:57:02.886Z,24.57
2019-01-25T13:59:29.628Z,24.44
2019-01-25T14:01:56.326Z,24.35
2019-01-25T14:04:22.980Z,24.75
2019-01-25T14:06:49.636Z,24.55
2019-01-25T14:09:16.962Z,24.58
2019-01-25T14:11:42.953Z,24.64
2019-01-25T14:14:09.632Z,24.50
2019-01-25T14:16:36.330Z,24.37
2019-01-25T14:19:02.997Z,24.34
2019-01-25T14:21:29.749Z,24.41
2019-01-25T14:23:56.487Z,24.40
2019-01-25T14:26:23.145Z,24.33
2019-01-25T14:28:50.234Z,24.34
2019-01-25T14:31:16.869Z,24.39
2019-01-25T14:33:43.529Z,24.33
2019-01-25T14:36:10.278Z,24.34
2019-01-25T14:38:36.948Z,24.36
2019-01-25T14:41:03.624Z,24.39
2019-01-25T14:43:30.280Z,24.37
2019-01-25T14:45:56.929Z,24.31
2019-01-25T14:48:23.669Z,24.50
2019-01-25T14:50:50.337Z,24.39
2019-01-25T14:53:17.194Z,24.44
2019-01-25T14:55:43.928Z,24.39
2019-01-25T14:58:10.582Z,24.30
2019-01-25T15:00:37.253Z,24.26
2019-01-25T15:03:03.896Z,24.19
2019-01-25T15:05:32.873Z,24.28
2019-01-25T15:07:59.509Z,24.31
2019-01-25T15:10:26.252Z,24.19
2019-01-25T15:12:52.936Z,24.22
2019-01-25T15:15:19.591Z,24.27
2019-01-25T15:17:46.281Z,24.28
2019-01-25T15:20:13.006Z,24.25
2019-01-25T15:22:39.658Z,24.42
2019-01-25T15:25:06.297Z,24.30
2019-01-25T15:27:32.957Z,24.34
2019-01-25T15:29:59.615Z,24.32
2019-01-25T15:32:26.319Z,24.43
2019-01-25T15:34:52.964Z,24.34
2019-01-25T15:37:19.637Z,24.30
2019-01-25T15:39:46.283Z,24.31
2019-01-25T15:42:12.928Z,24.31
2019-01-25T15:44:39.584Z,24.37
2019-01-25T15:47:06.234Z,24.40
2019-01-25T15:49:32.888Z,24.38
2019-01-25T15:51:59.524Z,24.46
2019-01-25T15:54:26.182Z,24.33
2019-01-25T15:56:52.902Z,24.36
2019-01-25T15:59:19.544Z,24.37
2019-01-25T16:01:46.208Z,24.37
2019-01-25T16:04:12.857Z,24.41
2019-01-25T16:06:39.493Z,24.39
2019-01-25T16:09:06.152Z,24.39
2019-01-25T16:11:34.323Z,24.35
2019-01-25T16:13:59.454Z,24.38
2019-01-25T16:16:26.198Z,24.37
2019-01-25T16:18:52.935Z,24.43
2019-01-25T16:21:19.585Z,24.58
2019-01-25T16:23:46.229Z,24.53
2019-01-25T16:26:12.874Z,24.39
2019-01-25T16:28:39.540Z,24.42
2019-01-25T16:31:06.200Z,24.37
2019-01-25T16:33:33.218Z,24.36
2019-01-25T16:35:59.862Z,24.33
2019-01-25T16:38:26.501Z,24.34
2019-01-25T16:40:53.163Z,24.35
2019-01-25T16:43:19.845Z,24.34
2019-01-25T16:45:46.506Z,24.29
2019-01-25T16:48:13.146Z,24.29
2019-01-25T16:50:39.993Z,24.30
2019-01-25T16:53:06.437Z,24.28
2019-01-25T16:55:33.081Z,24.32
2019-01-25T16:57:59.734Z,24.30
2019-01-25T17:00:26.369Z,24.28
2019-01-25T17:02:53.044Z,24.27
2019-01-25T17:05:19.685Z,24.27
2019-01-25T17:07:46.365Z,24.24
2019-01-25T17:10:13.004Z,24.26
2019-01-25T17:12:39.668Z,24.27
2019-01-25T17:15:06.325Z,24.25
2019-01-25T17:17:32.972Z,24.24
2019-01-25T17:19:59.620Z,24.26
2019-01-25T17:22:26.271Z,24.22
2019-01-25T17:24:52.923Z,24.19
2019-01-25T17:27:19.558Z,24.24
2019-01-25T17:29:46.259Z,24.19
2019-01-25T17:32:12.900Z,24.23
2019-01-25T17:34:39.563Z,24.24
2019-01-25T17:37:06.207Z,24.21
2019-01-25T17:39:32.893Z,24.22
2019-01-25T17:41:59.520Z,24.21
2019-01-25T17:44:26.411Z,24.21
2019-01-25T17:46:53.084Z,24.18
2019-01-25T17:49:19.739Z,24.18
2019-01-25T17:51:46.374Z,24.24
2019-01-25T17:54:13.025Z,24.29
2019-01-25T17:56:39.667Z,24.16
2019-01-25T17:59:06.347Z,24.17
2019-01-25T18:01:33.027Z,24.14
2019-01-25T18:03:59.679Z,24.15
2019-01-25T18:06:26.331Z,24.11
2019-01-25T18:08:52.968Z,24.13
2019-01-25T18:11:19.771Z,24.11
2019-01-25T18:13:46.412Z,24.10
2019-01-25T18:16:13.119Z,24.13
2019-01-25T18:18:39.773Z,24.14
2019-01-25T18:21:06.466Z,24.10
2019-01-25T18:23:33.104Z,24.10
2019-01-25T18:25:59.745Z,24.08
2019-01-25T18:28:26.463Z,24.05
2019-01-25T18:30:53.100Z,24.03
2019-01-25T18:33:19.737Z,24.07
2019-01-25T18:35:46.411Z,24.07
2019-01-25T18:38:13.073Z,24.07
2019-01-25T18:40:39.725Z,24.03
2019-01-25T18:43:06.417Z,24.10
2019-01-25T18:45:33.059Z,24.08
2019-01-25T18:47:59.718Z,24.07
2019-01-25T18:50:26.371Z,24.05
2019-01-25T18:52:53.010Z,23.96
2019-01-25T18:55:19.663Z,23.90
2019-01-25T18:57:46.370Z,23.76
2019-01-25T19:00:13.026Z,23.67
2019-01-25T19:02:39.677Z,23.66
2019-01-25T19:05:06.334Z,23.63
2019-01-25T19:07:32.972Z,23.69
2019-01-25T19:09:59.656Z,23.72
2019-01-25T19:12:26.297Z,23.77
2019-01-25T19:14:52.940Z,23.81
2019-01-25T19:17:19.671Z,23.82
2019-01-25T19:19:46.358Z,23.82
2019-01-25T19:22:13.001Z,23.86
2019-01-25T19:24:39.669Z,23.85
2019-01-25T19:27:06.305Z,23.90
2019-01-25T19:29:32.968Z,23.91
2019-01-25T19:31:59.629Z,23.91
2019-01-25T19:34:26.317Z,23.91
2019-01-25T19:36:52.958Z,23.93
2019-01-25T19:39:19.617Z,23.96
2019-01-25T19:41:46.257Z,23.91
2019-01-25T19:44:12.898Z,23.93
2019-01-25T19:46:39.542Z,23.85
2019-01-25T19:49:06.202Z,23.87
2019-01-25T19:51:32.841Z,23.85
2019-01-25T19:53:59.538Z,23.86
2019-01-25T19:56:26.182Z,23.84
2019-01-25T19:58:52.819Z,23.82
2019-01-25T20:01:19.474Z,23.81
2019-01-25T20:03:46.161Z,23.81
2019-01-25T20:06:12.802Z,23.78
2019-01-25T20:08:39.448Z,23.78
2019-01-25T20:11:06.096Z,23.77
2019-01-25T20:13:32.749Z,23.78
2019-01-25T20:15:59.386Z,23.76
2019-01-25T20:18:26.060Z,23.76
2019-01-25T20:20:52.700Z,23.72
2019-01-25T20:23:19.343Z,23.73
2019-01-25T20:25:45.993Z,23.72
2019-01-25T20:28:12.650Z,23.71
2019-01-25T20:30:39.300Z,23.71
2019-01-25T20:33:05.964Z,23.73
2019-01-25T20:35:32.598Z,23.69
2019-01-25T20:37:59.286Z,23.74
2019-01-25T20:40:25.929Z,23.69
2019-01-25T20:42:52.573Z,23.66
2019-01-25T20:45:19.210Z,23.66
2019-01-25T20:47:45.857Z,23.62
2019-01-25T20:50:12.531Z,23.66
2019-01-25T20:52:39.170Z,23.69
2019-01-25T20:55:05.851Z,23.64
2019-01-25T20:57:32.528Z,23.66
2019-01-25T20:59:59.178Z,23.66
2019-01-25T21:02:25.811Z,23.66
2019-01-25T21:04:52.500Z,23.64
2019-01-25T21:07:19.160Z,23.65
2019-01-25T21:09:45.798Z,23.63
2019-01-25T21:12:12.482Z,23.62
2019-01-25T21:14:39.132Z,23.59
2019-01-25T21:17:05.838Z,23.63
2019-01-25T21:19:32.482Z,23.63
2019-01-25T21:21:59.121Z,23.62
2019-01-25T21:24:25.801Z,23.57
2019-01-25T21:26:52.484Z,23.58
2019-01-25T21:29:19.128Z,23.59
2019-01-25T21:31:49.188Z,23.60
2019-01-25T21:34:15.847Z,23.55
2019-01-25T21:36:42.540Z,23.56
2019-01-25T21:39:09.179Z,23.58
2019-01-25T21:41:35.830Z,23.58
2019-01-25T21:44:02.467Z,23.56
2019-01-25T21:46:29.123Z,23.56
2019-01-25T21:48:55.781Z,23.57
2019-01-25T21:51:22.450Z,23.59
2019-01-25T21:53:49.126Z,23.53
2019-01-25T21:56:15.794Z,23.56
2019-01-25T21:58:42.477Z,23.55
2019-01-25T22:01:09.117Z,23.56
2019-01-25T22:03:35.827Z,23.57
2019-01-25T22:06:02.513Z,23.56
2019-01-25T22:08:29.176Z,23.60
2019-01-25T22:10:55.869Z,23.54
2019-01-25T22:13:22.549Z,23.56
2019-01-25T22:15:51.139Z,23.53
2019-01-25T22:18:15.892Z,23.50
2019-01-25T22:20:42.552Z,23.49
2019-01-25T22:23:09.237Z,23.51
2019-01-25T22:25:35.893Z,23.52
2019-01-25T22:28:02.542Z,23.50
2019-01-25T22:30:29.188Z,23.48
2019-01-25T22:32:55.825Z,23.50
2019-01-25T22:35:22.483Z,23.52
2019-01-25T22:37:49.116Z,23.49
2019-01-25T22:40:15.769Z,23.47
2019-01-25T22:42:42.408Z,23.48
2019-01-25T22:45:09.099Z,23.52
2019-01-25T22:47:35.739Z,23.48
2019-01-25T22:50:02.400Z,23.45
2019-01-25T22:52:29.046Z,23.45
2019-01-25T22:54:55.699Z,23.45
2019-01-25T22:57:22.341Z,23.44
2019-01-25T22:59:49.075Z,23.45
2019-01-25T23:02:15.759Z,23.45
2019-01-25T23:04:42.405Z,23.42
2019-01-25T23:07:09.045Z,23.40
2019-01-25T23:09:35.848Z,23.37
2019-01-25T23:12:02.480Z,23.44
2019-01-25T23:14:29.121Z,23.40
2019-01-25T23:16:55.786Z,23.31
2019-01-25T23:19:22.436Z,23.35
2019-01-25T23:21:50.315Z,23.38
2019-01-25T23:24:15.760Z,23.38
2019-01-25T23:26:42.398Z,23.42
2019-01-25T23:29:09.056Z,23.37
2019-01-25T23:31:35.747Z,23.37
2019-01-25T23:34:02.424Z,23.36
2019-01-25T23:36:29.064Z,23.39
2019-01-25T23:38:55.714Z,23.37
2019-01-25T23:41:22.369Z,23.34
2019-01-25T23:43:49.019Z,23.31
2019-01-25T23:46:15.665Z,23.33
2019-01-25T23:48:42.316Z,23.35
2019-01-25T23:51:08.960Z,23.34
2019-01-25T23:53:35.604Z,23.31
2019-01-25T23:56:02.295Z,23.29
2019-01-25T23:58:28.939Z,23.29
